createdAt,value
2022-08-31T00:00:10.781Z,101560.00
2022-08-31T00:02:57.170Z,101545.38
2022-08-31T00:05:24.429Z,101545.25
2022-08-31T00:07:51.716Z,101540.66
2022-08-31T00:10:31.972Z,101545.22
2022-08-31T00:13:01.430Z,101540.56
2022-08-31T00:15:30.151Z,101546.63
2022-08-31T00:17:57.235Z,101542.03
2022-08-31T00:20:32.698Z,101541.09
2022-08-31T00:23:05.039Z,101537.69
2022-08-31T00:25:33.676Z,101542.66
2022-08-31T00:28:00.296Z,101544.84
2022-08-31T00:30:26.907Z,101543.09
2022-08-31T00:32:53.628Z,101534.16
2022-08-31T00:35:24.398Z,101542.09
2022-08-31T00:37:51.033Z,101542.91
2022-08-31T00:40:17.609Z,101530.06
2022-08-31T00:42:44.177Z,101526.06
2022-08-31T00:45:11.072Z,101518.81
2022-08-31T00:47:37.956Z,101529.88
2022-08-31T00:50:08.640Z,101527.81
2022-08-31T00:52:39.845Z,101531.69
2022-08-31T00:55:12.110Z,101532.09
2022-08-31T00:57:42.597Z,101528.41
2022-08-31T01:00:13.473Z,101523.97
2022-08-31T01:02:41.351Z,101524.38
2022-08-31T01:05:09.801Z,101524.81
2022-08-31T01:07:36.882Z,101528.19
2022-08-31T01:10:05.248Z,101530.34
2022-08-31T01:12:31.997Z,101536.41
2022-08-31T01:15:02.599Z,101531.94
2022-08-31T01:17:31.350Z,101530.56
2022-08-31T01:20:07.722Z,101521.38
2022-08-31T01:22:48.080Z,101521.91
2022-08-31T01:25:15.398Z,101515.53
2022-08-31T01:27:42.485Z,101524.81
2022-08-31T01:30:11.816Z,101533.78
2022-08-31T01:32:39.752Z,101534.25
2022-08-31T01:35:07.492Z,101537.38
2022-08-31T01:37:38.176Z,101539.38
2022-08-31T01:40:05.163Z,101541.56
2022-08-31T01:42:34.430Z,101542.66
2022-08-31T01:45:02.395Z,101548.00
2022-08-31T01:47:28.988Z,101543.91
2022-08-31T01:49:57.781Z,101541.16
2022-08-31T01:52:27.691Z,101540.41
2022-08-31T01:54:55.872Z,101549.34
2022-08-31T01:57:26.948Z,101551.06
2022-08-31T02:00:21.518Z,101548.03
2022-08-31T02:02:48.136Z,101549.97
2022-08-31T02:05:15.103Z,101543.34
2022-08-31T02:07:44.432Z,101551.69
2022-08-31T02:10:11.752Z,101552.13
2022-08-31T02:12:41.108Z,101560.34
2022-08-31T02:15:09.900Z,101555.66
2022-08-31T02:17:36.507Z,101558.78
2022-08-31T02:20:06.797Z,101561.81
2022-08-31T02:22:33.750Z,101559.16
2022-08-31T02:25:00.275Z,101563.84
2022-08-31T02:27:27.163Z,101561.09
2022-08-31T02:29:54.075Z,101559.00
2022-08-31T02:32:23.665Z,101566.88
2022-08-31T02:34:50.973Z,101566.50
2022-08-31T02:37:18.376Z,101562.75
2022-08-31T02:39:48.765Z,101565.00
2022-08-31T02:42:18.473Z,101562.84
2022-08-31T02:44:45.969Z,101559.72
2022-08-31T02:47:12.693Z,101568.41
2022-08-31T02:49:43.969Z,101571.75
2022-08-31T02:52:11.124Z,101572.84
2022-08-31T02:54:37.659Z,101567.28
2022-08-31T02:57:04.378Z,101565.19
2022-08-31T02:59:32.457Z,101581.03
2022-08-31T03:01:59.251Z,101576.66
2022-08-31T03:04:26.683Z,101567.53
2022-08-31T03:06:53.279Z,101573.16
2022-08-31T03:09:20.734Z,101570.72
2022-08-31T03:11:47.716Z,101564.16
2022-08-31T03:14:14.301Z,101572.50
2022-08-31T03:16:41.710Z,101567.81
2022-08-31T03:19:09.561Z,101565.47
2022-08-31T03:21:36.208Z,101558.09
2022-08-31T03:24:02.862Z,101562.28
2022-08-31T03:26:29.784Z,101568.03
2022-08-31T03:28:56.371Z,101567.75
2022-08-31T03:31:41.565Z,101568.59
2022-08-31T03:34:09.215Z,101559.25
2022-08-31T03:36:36.066Z,101560.72
2022-08-31T03:39:02.815Z,101552.88
2022-08-31T03:41:29.419Z,101553.91
2022-08-31T03:43:57.478Z,101553.06
2022-08-31T03:46:24.463Z,101551.25
2022-08-31T03:48:51.286Z,101553.81
2022-08-31T03:51:23.068Z,101560.28
2022-08-31T03:53:52.042Z,101563.69
2022-08-31T03:56:20.949Z,101567.13
2022-08-31T03:58:49.544Z,101567.94
2022-08-31T04:01:36.173Z,101573.28
2022-08-31T04:04:25.541Z,101575.84
2022-08-31T04:07:12.078Z,101566.66
2022-08-31T04:09:57.254Z,101571.34
2022-08-31T04:12:55.800Z,101568.69
2022-08-31T04:16:02.108Z,101565.66
2022-08-31T04:18:51.885Z,101563.03
2022-08-31T04:21:25.348Z,101564.81
2022-08-31T04:23:53.347Z,101552.59
2022-08-31T04:26:21.526Z,101555.06
2022-08-31T04:28:48.391Z,101560.44
2022-08-31T04:31:15.981Z,101558.72
2022-08-31T04:33:43.536Z,101556.50
2022-08-31T04:36:16.033Z,101567.13
2022-08-31T04:38:45.037Z,101565.97
2022-08-31T04:41:13.893Z,101562.81
2022-08-31T04:43:46.568Z,101564.50
2022-08-31T04:46:13.839Z,101568.13
2022-08-31T04:48:40.830Z,101568.97
2022-08-31T04:51:09.979Z,101569.06
2022-08-31T04:53:37.330Z,101570.38
2022-08-31T04:56:13.838Z,101577.19
2022-08-31T04:58:47.892Z,101576.78
2022-08-31T05:01:17.392Z,101581.03
2022-08-31T05:04:03.869Z,101581.28
2022-08-31T05:06:32.333Z,101579.09
2022-08-31T05:09:05.826Z,101584.44
2022-08-31T05:11:39.882Z,101585.50
2022-08-31T05:14:08.716Z,101582.09
2022-08-31T05:16:39.698Z,101585.06
2022-08-31T05:19:07.265Z,101591.47
2022-08-31T05:21:37.119Z,101583.13
2022-08-31T05:24:17.124Z,101582.50
2022-08-31T05:26:48.248Z,101582.50
2022-08-31T05:29:19.552Z,101577.19
2022-08-31T05:31:52.005Z,101584.22
2022-08-31T05:34:20.950Z,101586.34
2022-08-31T05:36:53.917Z,101579.44
2022-08-31T05:39:20.899Z,101591.38
2022-08-31T05:41:48.610Z,101588.94
2022-08-31T05:44:17.614Z,101586.41
2022-08-31T05:46:44.978Z,101585.56
2022-08-31T05:49:19.382Z,101584.91
2022-08-31T05:51:46.004Z,101588.75
2022-08-31T05:54:14.654Z,101585.88
2022-08-31T05:56:42.015Z,101593.53
2022-08-31T05:59:11.353Z,101584.81
2022-08-31T06:01:40.889Z,101580.63
2022-08-31T06:04:11.321Z,101582.94
2022-08-31T06:06:38.240Z,101581.28
2022-08-31T06:09:07.417Z,101575.56
2022-08-31T06:11:34.766Z,101585.44
2022-08-31T06:14:03.761Z,101588.31
2022-08-31T06:16:32.216Z,101592.78
2022-08-31T06:18:59.336Z,101591.19
2022-08-31T06:21:33.410Z,101595.66
2022-08-31T06:24:01.991Z,101593.09
2022-08-31T06:26:31.416Z,101594.47
2022-08-31T06:29:01.510Z,101588.53
2022-08-31T06:31:32.914Z,101595.75
2022-08-31T06:34:01.573Z,101596.50
2022-08-31T06:36:48.198Z,101590.72
2022-08-31T06:39:21.483Z,101596.56
2022-08-31T06:41:56.819Z,101597.16
2022-08-31T06:44:39.616Z,101592.38
2022-08-31T06:47:09.294Z,101596.41
2022-08-31T06:49:39.045Z,101599.06
2022-08-31T06:52:05.638Z,101605.63
2022-08-31T06:54:35.027Z,101603.94
2022-08-31T06:57:19.948Z,101605.56
2022-08-31T07:00:13.430Z,101614.16
2022-08-31T07:03:22.967Z,101614.38
2022-08-31T07:05:52.332Z,101618.81
2022-08-31T07:08:22.591Z,101617.28
2022-08-31T07:10:49.479Z,101625.06
2022-08-31T07:13:18.410Z,101626.94
2022-08-31T07:15:45.543Z,101631.94
2022-08-31T07:18:12.405Z,101632.69
2022-08-31T07:20:40.267Z,101629.19
2022-08-31T07:23:09.960Z,101632.34
2022-08-31T07:25:40.145Z,101637.81
2022-08-31T07:28:07.314Z,101637.41
2022-08-31T07:30:39.844Z,101633.19
2022-08-31T07:33:07.052Z,101629.31
2022-08-31T07:35:36.043Z,101631.72
2022-08-31T07:38:28.746Z,101634.28
2022-08-31T07:41:13.919Z,101629.69
2022-08-31T07:43:41.796Z,101636.59
2022-08-31T07:46:09.945Z,101638.16
2022-08-31T07:48:37.157Z,101645.09
2022-08-31T07:51:23.496Z,101637.28
2022-08-31T07:54:08.453Z,101644.72
2022-08-31T07:57:04.364Z,101643.53
2022-08-31T07:59:33.839Z,101649.97
2022-08-31T08:02:03.985Z,101653.84
2022-08-31T08:04:32.035Z,101653.94
2022-08-31T08:07:18.863Z,101648.03
2022-08-31T08:10:13.998Z,101655.94
2022-08-31T08:12:56.188Z,101658.66
2022-08-31T08:15:46.230Z,101657.13
2022-08-31T08:18:13.514Z,101654.19
2022-08-31T08:20:46.745Z,101653.41
2022-08-31T08:23:22.134Z,101656.59
2022-08-31T08:26:21.886Z,101657.31
2022-08-31T08:29:19.647Z,101663.16
2022-08-31T08:31:52.962Z,101653.28
2022-08-31T08:34:32.283Z,101659.47
2022-08-31T08:37:00.326Z,101662.88
2022-08-31T08:39:27.474Z,101656.34
2022-08-31T08:42:12.489Z,101659.00
2022-08-31T08:44:40.095Z,101658.34
2022-08-31T08:47:15.126Z,101666.84
2022-08-31T08:49:53.606Z,101658.94
2022-08-31T08:52:41.323Z,101663.00
2022-08-31T08:55:10.366Z,101660.13
2022-08-31T08:57:41.263Z,101665.28
2022-08-31T09:00:12.846Z,101661.38
2022-08-31T09:03:04.573Z,101666.38
2022-08-31T09:06:25.226Z,101657.44
2022-08-31T09:09:08.694Z,101656.19
2022-08-31T09:12:05.063Z,101657.38
2022-08-31T09:14:54.007Z,101664.53
2022-08-31T09:17:39.276Z,101657.09
2022-08-31T09:20:07.475Z,101650.81
2022-08-31T09:22:48.492Z,101651.75
2022-08-31T09:25:28.358Z,101641.25
2022-08-31T09:28:15.155Z,101649.44
2022-08-31T09:30:44.813Z,101650.16
2022-08-31T09:33:23.349Z,101642.13
2022-08-31T09:35:55.968Z,101642.66
2022-08-31T09:38:39.412Z,101646.06
2022-08-31T09:41:31.429Z,101646.59
2022-08-31T09:44:23.514Z,101645.59
2022-08-31T09:46:53.467Z,101638.28
2022-08-31T09:49:22.539Z,101643.22
2022-08-31T09:51:49.483Z,101640.69
2022-08-31T09:54:34.653Z,101640.56
2022-08-31T09:57:06.982Z,101644.13
2022-08-31T09:59:41.792Z,101641.13
2022-08-31T10:02:31.545Z,101647.50
2022-08-31T10:05:06.475Z,101641.81
2022-08-31T10:07:44.951Z,101642.41
2022-08-31T10:10:24.303Z,101646.28
2022-08-31T10:13:04.341Z,101637.41
2022-08-31T10:15:42.678Z,101639.25
2022-08-31T10:18:19.332Z,101634.88
2022-08-31T10:21:06.043Z,101637.28
2022-08-31T10:23:53.915Z,101632.19
2022-08-31T10:26:31.599Z,101634.03
2022-08-31T10:29:05.967Z,101634.41
2022-08-31T10:31:48.105Z,101636.66
2022-08-31T10:34:52.232Z,101623.44
2022-08-31T10:37:43.694Z,101639.19
2022-08-31T10:40:18.355Z,101639.19
2022-08-31T10:43:10.118Z,101635.53
2022-08-31T10:45:42.847Z,101631.72
2022-08-31T10:48:12.732Z,101631.97
2022-08-31T10:50:51.291Z,101627.91
2022-08-31T10:53:54.192Z,101627.06
2022-08-31T10:56:41.248Z,101634.41
2022-08-31T10:59:31.569Z,101624.53
2022-08-31T11:02:23.601Z,101632.03
2022-08-31T11:05:19.775Z,101634.28
2022-08-31T11:08:13.177Z,101630.72
2022-08-31T11:10:54.165Z,101629.34
2022-08-31T11:13:36.045Z,101630.28
2022-08-31T11:16:34.368Z,101628.28
2022-08-31T11:19:38.626Z,101630.00
2022-08-31T11:22:21.262Z,101632.91
2022-08-31T11:24:57.435Z,101631.16
2022-08-31T11:27:28.310Z,101630.00
2022-08-31T11:30:08.044Z,101628.56
2022-08-31T11:32:47.268Z,101630.06
2022-08-31T11:35:15.236Z,101627.88
2022-08-31T11:37:55.542Z,101625.16
2022-08-31T11:40:41.524Z,101626.44
2022-08-31T11:43:16.174Z,101618.84
2022-08-31T11:45:43.112Z,101617.34
2022-08-31T11:48:51.068Z,101617.22
2022-08-31T11:51:40.966Z,101609.50
2022-08-31T11:54:36.228Z,101606.16
2022-08-31T11:57:05.957Z,101603.78
2022-08-31T11:59:35.385Z,101603.75
2022-08-31T12:02:20.522Z,101608.13
2022-08-31T12:04:48.099Z,101608.56
2022-08-31T12:07:27.858Z,101601.06
2022-08-31T12:10:33.557Z,101602.78
2022-08-31T12:13:09.041Z,101598.00
2022-08-31T12:16:01.227Z,101597.38
2022-08-31T12:18:51.197Z,101589.88
2022-08-31T12:21:42.449Z,101595.50
2022-08-31T12:24:18.660Z,101595.94
2022-08-31T12:27:14.523Z,101597.00
2022-08-31T12:29:42.127Z,101593.59
2022-08-31T12:32:36.176Z,101593.34
2022-08-31T12:35:23.211Z,101583.84
2022-08-31T12:38:06.365Z,101586.28
2022-08-31T12:40:45.100Z,101582.22
2022-08-31T12:43:23.388Z,101579.84
2022-08-31T12:45:49.938Z,101582.03
2022-08-31T12:48:41.296Z,101588.38
2022-08-31T12:51:26.711Z,101580.44
2022-08-31T12:54:41.283Z,101570.56
2022-08-31T12:57:26.801Z,101575.16
2022-08-31T13:00:26.010Z,101572.88
2022-08-31T13:02:57.664Z,101569.56
2022-08-31T13:05:36.633Z,101568.75
2022-08-31T13:08:20.976Z,101573.56
2022-08-31T13:10:47.625Z,101570.66
2022-08-31T13:13:23.172Z,101566.28
2022-08-31T13:15:49.826Z,101558.59
2022-08-31T13:18:23.399Z,101556.84
2022-08-31T13:21:02.266Z,101558.00
2022-08-31T13:23:41.371Z,101568.81
2022-08-31T13:26:25.039Z,101564.94
2022-08-31T13:29:00.265Z,101564.47
2022-08-31T13:31:33.522Z,101560.13
2022-08-31T13:34:03.203Z,101555.63
2022-08-31T13:36:38.653Z,101556.50
2022-08-31T13:39:15.863Z,101561.28
2022-08-31T13:42:06.573Z,101550.88
2022-08-31T13:44:42.303Z,101555.22
2022-08-31T13:47:21.429Z,101558.91
2022-08-31T13:49:53.145Z,101558.53
2022-08-31T13:52:30.048Z,101562.44
2022-08-31T13:55:08.147Z,101550.88
2022-08-31T13:57:38.160Z,101554.09
2022-08-31T14:00:23.412Z,101552.22
2022-08-31T14:02:50.078Z,101551.53
2022-08-31T14:05:35.789Z,101554.38
2022-08-31T14:08:04.380Z,101551.53
2022-08-31T14:10:37.590Z,101550.44
2022-08-31T14:13:09.963Z,101549.25
2022-08-31T14:15:47.329Z,101541.34
2022-08-31T14:18:43.047Z,101547.25
2022-08-31T14:21:20.965Z,101551.25
2022-08-31T14:24:01.956Z,101540.34
2022-08-31T14:26:41.716Z,101539.28
2022-08-31T14:29:17.422Z,101544.34
2022-08-31T14:31:49.012Z,101532.28
2022-08-31T14:34:24.438Z,101540.31
2022-08-31T14:36:53.126Z,101531.16
2022-08-31T14:40:07.078Z,101526.06
2022-08-31T14:42:37.581Z,101529.63
2022-08-31T14:45:18.241Z,101523.28
2022-08-31T14:47:47.845Z,101519.81
2022-08-31T14:50:18.659Z,101513.09
2022-08-31T14:52:55.037Z,101516.16
2022-08-31T14:55:24.555Z,101521.84
2022-08-31T14:58:05.005Z,101519.88
2022-08-31T15:00:33.722Z,101513.34
2022-08-31T15:03:02.439Z,101516.84
2022-08-31T15:05:29.484Z,101523.81
2022-08-31T15:07:56.757Z,101519.09
2022-08-31T15:10:25.789Z,101517.72
2022-08-31T15:12:53.523Z,101517.53
2022-08-31T15:15:20.723Z,101517.88
2022-08-31T15:17:50.438Z,101516.78
2022-08-31T15:20:19.550Z,101517.41
2022-08-31T15:22:48.146Z,101512.72
2022-08-31T15:25:15.127Z,101513.81
2022-08-31T15:27:44.311Z,101507.19
2022-08-31T15:30:14.692Z,101513.41
2022-08-31T15:32:47.786Z,101511.25
2022-08-31T15:35:18.899Z,101507.28
2022-08-31T15:37:56.310Z,101512.03
2022-08-31T15:40:23.827Z,101510.66
2022-08-31T15:42:53.861Z,101513.88
2022-08-31T15:45:23.225Z,101518.50
2022-08-31T15:48:08.597Z,101499.28
2022-08-31T15:50:35.937Z,101502.16
2022-08-31T15:53:09.573Z,101495.06
2022-08-31T15:55:40.234Z,101499.75
2022-08-31T15:58:08.368Z,101495.75
2022-08-31T16:00:36.657Z,101494.31
2022-08-31T16:03:03.660Z,101490.31
2022-08-31T16:05:39.315Z,101499.13
2022-08-31T16:08:11.748Z,101495.75
2022-08-31T16:10:45.850Z,101496.06
2022-08-31T16:13:13.130Z,101488.53
2022-08-31T16:15:39.763Z,101486.09
2022-08-31T16:18:06.910Z,101490.25
2022-08-31T16:20:34.527Z,101486.25
2022-08-31T16:23:01.166Z,101489.47
2022-08-31T16:25:30.384Z,101485.41
2022-08-31T16:28:14.279Z,101492.47
2022-08-31T16:30:43.609Z,101482.63
2022-08-31T16:33:11.433Z,101487.72
2022-08-31T16:35:39.121Z,101478.34
2022-08-31T16:38:06.949Z,101486.34
2022-08-31T16:40:33.813Z,101486.63
2022-08-31T16:43:00.382Z,101484.88
2022-08-31T16:45:27.048Z,101481.50
2022-08-31T16:48:13.570Z,101492.69
2022-08-31T16:50:47.067Z,101493.94
2022-08-31T16:53:18.028Z,101494.63
2022-08-31T16:55:47.333Z,101481.88
2022-08-31T16:58:24.920Z,101489.50
2022-08-31T17:01:03.423Z,101489.94
2022-08-31T17:03:30.025Z,101496.41
2022-08-31T17:05:56.944Z,101492.34
2022-08-31T17:08:23.563Z,101492.47
2022-08-31T17:10:51.213Z,101492.47
2022-08-31T17:13:17.856Z,101496.72
2022-08-31T17:15:44.380Z,101495.00
2022-08-31T17:18:10.937Z,101500.38
2022-08-31T17:20:39.762Z,101486.81
2022-08-31T17:23:06.551Z,101489.69
2022-08-31T17:25:35.699Z,101490.09
2022-08-31T17:28:07.373Z,101494.50
2022-08-31T17:30:34.349Z,101490.16
2022-08-31T17:33:01.368Z,101495.34
2022-08-31T17:35:28.883Z,101488.91
2022-08-31T17:37:55.487Z,101496.81
2022-08-31T17:40:22.104Z,101503.56
2022-08-31T17:42:49.646Z,101497.56
2022-08-31T17:45:17.421Z,101504.75
2022-08-31T17:47:44.158Z,101503.53
2022-08-31T17:50:10.852Z,101501.16
2022-08-31T17:52:37.480Z,101501.59
2022-08-31T17:55:04.337Z,101508.66
2022-08-31T17:57:31.096Z,101502.91
2022-08-31T17:59:57.760Z,101504.56
2022-08-31T18:02:32.277Z,101505.31
2022-08-31T18:05:00.114Z,101499.56
2022-08-31T18:07:27.207Z,101510.44
2022-08-31T18:09:53.765Z,101513.16
2022-08-31T18:12:22.038Z,101514.47
2022-08-31T18:14:49.270Z,101509.94
2022-08-31T18:17:17.087Z,101517.00
2022-08-31T18:19:45.169Z,101522.94
2022-08-31T18:22:14.127Z,101516.16
2022-08-31T18:24:41.708Z,101529.72
2022-08-31T18:27:09.697Z,101527.72
2022-08-31T18:29:38.010Z,101536.38
2022-08-31T18:32:07.118Z,101538.22
2022-08-31T18:34:37.186Z,101539.78
2022-08-31T18:37:04.642Z,101539.78
2022-08-31T18:39:52.487Z,101543.28
2022-08-31T18:42:39.351Z,101551.63
2022-08-31T18:45:18.123Z,101553.63
2022-08-31T18:48:20.954Z,101549.00
2022-08-31T18:50:45.027Z,101553.09
2022-08-31T18:53:15.315Z,101561.56
2022-08-31T18:55:53.339Z,101562.97
2022-08-31T18:58:20.118Z,101562.84
2022-08-31T19:00:57.158Z,101564.13
2022-08-31T19:03:25.573Z,101568.78
2022-08-31T19:05:52.139Z,101576.66
2022-08-31T19:08:19.308Z,101565.78
2022-08-31T19:10:46.786Z,101572.00
2022-08-31T19:13:16.166Z,101572.25
2022-08-31T19:15:43.706Z,101577.16
2022-08-31T19:18:10.252Z,101581.81
2022-08-31T19:20:36.820Z,101585.78
2022-08-31T19:23:04.202Z,101588.16
2022-08-31T19:25:31.895Z,101584.50
2022-08-31T19:28:01.270Z,101578.44
2022-08-31T19:30:28.626Z,101583.63
2022-08-31T19:32:56.406Z,101583.63
2022-08-31T19:35:25.897Z,101579.69
2022-08-31T19:37:53.665Z,101590.25
2022-08-31T19:40:20.461Z,101588.44
2022-08-31T19:43:43.592Z,101584.31
2022-08-31T19:45:44.957Z,101579.97
2022-08-31T19:48:12.679Z,101576.16
2022-08-31T19:50:42.265Z,101580.53
2022-08-31T19:53:14.023Z,101588.56
2022-08-31T19:55:52.364Z,101586.84
2022-08-31T19:58:25.190Z,101586.00
2022-08-31T20:01:00.654Z,101585.41
2022-08-31T20:03:28.156Z,101590.72
2022-08-31T20:05:54.968Z,101587.91
2022-08-31T20:08:21.608Z,101597.19
2022-08-31T20:10:48.136Z,101597.66
2022-08-31T20:13:14.742Z,101595.94
2022-08-31T20:15:44.205Z,101588.06
2022-08-31T20:18:12.466Z,101587.84
2022-08-31T20:20:48.280Z,101588.41
2022-08-31T20:23:17.857Z,101588.53
2022-08-31T20:25:46.657Z,101585.34
2022-08-31T20:28:14.084Z,101588.53
2022-08-31T20:30:42.518Z,101582.75
2022-08-31T20:33:11.240Z,101596.00
2022-08-31T20:35:47.425Z,101584.59
2022-08-31T20:38:15.801Z,101582.59
2022-08-31T20:40:44.480Z,101585.97
2022-08-31T20:43:12.632Z,101582.72
2022-08-31T20:45:41.153Z,101586.75
2022-08-31T20:48:26.671Z,101586.03
2022-08-31T20:50:53.257Z,101594.91
2022-08-31T20:53:24.857Z,101593.47
2022-08-31T20:56:07.932Z,101593.75
2022-08-31T20:58:34.801Z,101598.41
2022-08-31T21:01:08.879Z,101599.50
2022-08-31T21:03:35.801Z,101594.00
2022-08-31T21:06:11.383Z,101597.81
2022-08-31T21:08:39.113Z,101590.50
2022-08-31T21:11:16.039Z,101590.19
2022-08-31T21:13:44.505Z,101597.53
2022-08-31T21:16:11.551Z,101589.59
2022-08-31T21:18:39.969Z,101587.66
2022-08-31T21:21:09.969Z,101580.41
2022-08-31T21:23:38.317Z,101591.56
2022-08-31T21:26:08.444Z,101590.31
2022-08-31T21:28:39.645Z,101586.94
2022-08-31T21:31:18.432Z,101585.38
2022-08-31T21:33:58.463Z,101583.38
2022-08-31T21:36:26.625Z,101588.38
2022-08-31T21:38:55.388Z,101587.06
2022-08-31T21:41:24.596Z,101593.63
2022-08-31T21:43:51.184Z,101591.22
2022-08-31T21:46:23.219Z,101599.75
2022-08-31T21:48:51.826Z,101595.50
2022-08-31T21:51:24.941Z,101597.72
2022-08-31T21:54:03.623Z,101591.97
2022-08-31T21:56:34.677Z,101593.94
2022-08-31T21:59:02.053Z,101590.06
2022-08-31T22:01:29.894Z,101590.91
2022-08-31T22:03:59.038Z,101590.19
2022-08-31T22:06:31.003Z,101595.53
2022-08-31T22:09:05.695Z,101601.88
2022-08-31T22:11:37.191Z,101600.19
2022-08-31T22:14:06.906Z,101603.22
2022-08-31T22:16:38.530Z,101602.38
2022-08-31T22:19:12.580Z,101601.06
2022-08-31T22:21:43.124Z,101601.34
2022-08-31T22:24:13.459Z,101600.09
2022-08-31T22:26:54.401Z,101596.72
2022-08-31T22:29:23.737Z,101598.19
2022-08-31T22:31:52.833Z,101603.19
2022-08-31T22:34:21.071Z,101594.44
2022-08-31T22:36:50.634Z,101603.88
2022-08-31T22:39:19.581Z,101607.66
2022-08-31T22:41:47.241Z,101606.31
2022-08-31T22:44:17.143Z,101607.78
2022-08-31T22:46:44.362Z,101602.81
2022-08-31T22:49:11.048Z,101606.56
2022-08-31T22:51:40.532Z,101604.03
2022-08-31T22:54:09.373Z,101599.91
2022-08-31T22:56:38.047Z,101601.00
2022-08-31T22:59:09.033Z,101595.41
2022-08-31T23:01:47.884Z,101593.13
2022-08-31T23:04:20.341Z,101597.84
2022-08-31T23:06:52.825Z,101593.25
2022-08-31T23:09:21.526Z,101587.03
2022-08-31T23:11:51.414Z,101595.31
2022-08-31T23:14:20.895Z,101596.97
2022-08-31T23:34:16.894Z,101584.31
2022-08-31T23:36:48.836Z,101582.63
2022-08-31T23:39:17.775Z,101589.06
2022-08-31T23:41:45.108Z,101582.13
2022-08-31T23:44:12.929Z,101576.69
2022-08-31T23:46:41.228Z,101580.06
2022-08-31T23:49:10.461Z,101578.41
2022-08-31T23:51:38.254Z,101586.88
2022-08-31T23:54:07.751Z,101579.97
2022-08-31T23:56:40.657Z,101579.34
2022-08-31T23:59:15.660Z,101578.03
